sensor_id;sensor_type;location;lat;lon;timestamp;pressure;altitude;pressure_sealevel;temperature;humidity
6514;BME280;3290;47.716;9.070;2022-08-30T00:00:33;97107.84;;;19.45;100.00
6514;BME280;3290;47.716;9.070;2022-08-30T00:03:17;97109.97;;;19.58;100.00
6514;BME280;3290;47.716;9.070;2022-08-30T00:05:44;97112.09;;;19.51;100.00
6514;BME280;3290;47.716;9.070;2022-08-30T00:08:10;97117.69;;;19.39;100.00
6514;BME280;3290;47.716;9.070;2022-08-30T00:10:37;97116.63;;;19.30;100.00
6514;BME280;3290;47.716;9.070;2022-08-30T00:13:03;97114.47;;;19.42;100.00
6514;BME280;3290;47.716;9.070;2022-08-30T00:15:29;97120.09;;;19.41;100.00
6514;BME280;3290;47.716;9.070;2022-08-30T00:17:54;97117.13;;;19.42;100.00
6514;BME280;3290;47.716;9.070;2022-08-30T00:20:24;97120.59;;;19.28;100.00
6514;BME280;3290;47.716;9.070;2022-08-30T00:22:50;97104.66;;;19.38;100.00
6514;BME280;3290;47.716;9.070;2022-08-30T00:25:17;97112.09;;;19.26;100.00
6514;BME280;3290;47.716;9.070;2022-08-30T00:27:43;97117.94;;;19.33;100.00
6514;BME280;3290;47.716;9.070;2022-08-30T00:30:10;97111.53;;;19.19;100.00
6514;BME280;3290;47.716;9.070;2022-08-30T00:32:36;97114.25;;;19.39;100.00
6514;BME280;3290;47.716;9.070;2022-08-30T00:35:02;97111.03;;;19.42;100.00
6514;BME280;3290;47.716;9.070;2022-08-30T00:37:28;97113.16;;;19.40;100.00
6514;BME280;3290;47.716;9.070;2022-08-30T00:39:54;97111.81;;;19.42;100.00
6514;BME280;3290;47.716;9.070;2022-08-30T00:42:20;97111.03;;;19.37;100.00
6514;BME280;3290;47.716;9.070;2022-08-30T00:44:46;97113.13;;;19.15;100.00
6514;BME280;3290;47.716;9.070;2022-08-30T00:47:11;97107.56;;;19.26;100.00
6514;BME280;3290;47.716;9.070;2022-08-30T00:49:39;97112.59;;;19.08;100.00
6514;BME280;3290;47.716;9.070;2022-08-30T00:52:06;97102.75;;;19.09;100.00
6514;BME280;3290;47.716;9.070;2022-08-30T00:54:33;97103.53;;;18.99;100.00
6514;BME280;3290;47.716;9.070;2022-08-30T00:57:00;97112.25;;;18.90;100.00
6514;BME280;3290;47.716;9.070;2022-08-30T00:59:26;97108.59;;;19.11;100.00
6514;BME280;3290;47.716;9.070;2022-08-30T01:01:53;97105.13;;;19.10;100.00
6514;BME280;3290;47.716;9.070;2022-08-30T01:04:21;97109.66;;;19.05;100.00
6514;BME280;3290;47.716;9.070;2022-08-30T01:06:48;97109.66;;;19.05;100.00
6514;BME280;3290;47.716;9.070;2022-08-30T01:09:14;97113.13;;;19.10;100.00
6514;BME280;3290;47.716;9.070;2022-08-30T01:11:42;97113.13;;;19.10;100.00
6514;BME280;3290;47.716;9.070;2022-08-30T01:14:10;97109.41;;;19.06;100.00
6514;BME280;3290;47.716;9.070;2022-08-30T01:16:37;97104.53;;;18.84;100.00
6514;BME280;3290;47.716;9.070;2022-08-30T01:19:04;97110.84;;;18.73;100.00
6514;BME280;3290;47.716;9.070;2022-08-30T01:21:49;97106.59;;;18.72;100.00
6514;BME280;3290;47.716;9.070;2022-08-30T01:24:17;97096.00;;;18.77;100.00
6514;BME280;3290;47.716;9.070;2022-08-30T01:26:43;97100.16;;;18.53;100.00
6514;BME280;3290;47.716;9.070;2022-08-30T01:29:12;97103.38;;;18.55;100.00
6514;BME280;3290;47.716;9.070;2022-08-30T01:31:39;97098.63;;;18.72;100.00
6514;BME280;3290;47.716;9.070;2022-08-30T01:34:06;97096.59;;;18.98;100.00
6514;BME280;3290;47.716;9.070;2022-08-30T01:36:33;97106.66;;;18.86;100.00
6514;BME280;3290;47.716;9.070;2022-08-30T01:39:00;97102.91;;;18.78;100.00
6514;BME280;3290;47.716;9.070;2022-08-30T01:41:33;97105.00;;;18.66;100.00
6514;BME280;3290;47.716;9.070;2022-08-30T01:44:02;97108.66;;;18.55;100.00
6514;BME280;3290;47.716;9.070;2022-08-30T01:46:33;97100.97;;;18.53;100.00
6514;BME280;3290;47.716;9.070;2022-08-30T01:49:05;97101.75;;;18.54;100.00
6514;BME280;3290;47.716;9.070;2022-08-30T01:51:31;97109.78;;;18.74;100.00
6514;BME280;3290;47.716;9.070;2022-08-30T01:53:57;97113.50;;;18.73;100.00
6514;BME280;3290;47.716;9.070;2022-08-30T01:56:24;97109.19;;;18.62;100.00
6514;BME280;3290;47.716;9.070;2022-08-30T01:58:50;97111.34;;;18.65;100.00
6514;BME280;3290;47.716;9.070;2022-08-30T02:01:18;97116.63;;;18.60;100.00
6514;BME280;3290;47.716;9.070;2022-08-30T02:03:44;97114.25;;;18.63;100.00
6514;BME280;3290;47.716;9.070;2022-08-30T02:06:14;97112.09;;;18.50;100.00
6514;BME280;3290;47.716;9.070;2022-08-30T02:08:40;97109.94;;;18.47;100.00
6514;BME280;3290;47.716;9.070;2022-08-30T02:11:06;97110.31;;;18.66;100.00
6514;BME280;3290;47.716;9.070;2022-08-30T02:13:32;97114.50;;;18.62;100.00
6514;BME280;3290;47.716;9.070;2022-08-30T02:15:58;97121.41;;;18.58;100.00
6514;BME280;3290;47.716;9.070;2022-08-30T02:18:25;97114.50;;;18.52;100.00
6514;BME280;3290;47.716;9.070;2022-08-30T02:20:51;97118.19;;;18.51;100.00
6514;BME280;3290;47.716;9.070;2022-08-30T02:23:17;97109.97;;;18.52;100.00
6514;BME280;3290;47.716;9.070;2022-08-30T02:25:43;97110.72;;;18.43;100.00
6514;BME280;3290;47.716;9.070;2022-08-30T02:28:09;97111.28;;;18.45;100.00
6514;BME280;3290;47.716;9.070;2022-08-30T02:30:35;97113.34;;;18.38;100.00
6514;BME280;3290;47.716;9.070;2022-08-30T02:33:00;97110.69;;;18.38;100.00
6514;BME280;3290;47.716;9.070;2022-08-30T02:35:26;97112.56;;;18.38;100.00
6514;BME280;3290;47.716;9.070;2022-08-30T02:37:51;97113.91;;;18.45;100.00
6514;BME280;3290;47.716;9.070;2022-08-30T02:40:18;97116.84;;;18.48;100.00
6514;BME280;3290;47.716;9.070;2022-08-30T02:42:43;97113.63;;;18.42;100.00
6514;BME280;3290;47.716;9.070;2022-08-30T02:45:09;97104.09;;;18.45;100.00
6514;BME280;3290;47.716;9.070;2022-08-30T02:47:35;97109.94;;;18.47;100.00
6514;BME280;3290;47.716;9.070;2022-08-30T02:50:03;97104.59;;;18.43;100.00
6514;BME280;3290;47.716;9.070;2022-08-30T02:52:28;97096.53;;;18.18;100.00
6514;BME280;3290;47.716;9.070;2022-08-30T02:54:54;97094.19;;;18.26;100.00
6514;BME280;3290;47.716;9.070;2022-08-30T02:57:19;97091.78;;;18.25;100.00
6514;BME280;3290;47.716;9.070;2022-08-30T02:59:44;97100.00;;;18.23;100.00
6514;BME280;3290;47.716;9.070;2022-08-30T03:02:12;97092.34;;;18.32;100.00
6514;BME280;3290;47.716;9.070;2022-08-30T03:04:38;97094.69;;;18.23;100.00
6514;BME280;3290;47.716;9.070;2022-08-30T03:07:05;97098.97;;;18.29;100.00
6514;BME280;3290;47.716;9.070;2022-08-30T03:09:32;97094.81;;;18.43;100.00
6514;BME280;3290;47.716;9.070;2022-08-30T03:11:58;97092.03;;;18.18;100.00
6514;BME280;3290;47.716;9.070;2022-08-30T03:14:23;97094.38;;;18.10;100.00
6514;BME280;3290;47.716;9.070;2022-08-30T03:16:49;97099.91;;;18.08;100.00
6514;BME280;3290;47.716;9.070;2022-08-30T03:19:16;97102.22;;;18.00;100.00
6514;BME280;3290;47.716;9.070;2022-08-30T03:21:41;97093.06;;;17.76;100.00
6514;BME280;3290;47.716;9.070;2022-08-30T03:24:07;97075.91;;;17.89;100.00
6514;BME280;3290;47.716;9.070;2022-08-30T03:26:32;97083.97;;;18.08;100.00
6514;BME280;3290;47.716;9.070;2022-08-30T03:28:58;97081.44;;;18.18;100.00
6514;BME280;3290;47.716;9.070;2022-08-30T03:31:23;97086.56;;;17.99;100.00
6514;BME280;3290;47.716;9.070;2022-08-30T03:33:49;97080.75;;;18.02;100.00
6514;BME280;3290;47.716;9.070;2022-08-30T03:36:14;97084.03;;;17.77;100.00
6514;BME280;3290;47.716;9.070;2022-08-30T03:38:39;97084.75;;;18.04;100.00
6514;BME280;3290;47.716;9.070;2022-08-30T03:41:05;97082.44;;;18.12;100.00
6514;BME280;3290;47.716;9.070;2022-08-30T03:43:31;97087.69;;;18.07;100.00
6514;BME280;3290;47.716;9.070;2022-08-30T03:45:59;97083.09;;;17.93;100.00
6514;BME280;3290;47.716;9.070;2022-08-30T03:48:25;97080.25;;;18.04;100.00
6514;BME280;3290;47.716;9.070;2022-08-30T03:50:51;97080.63;;;17.82;100.00
6514;BME280;3290;47.716;9.070;2022-08-30T03:53:17;97080.63;;;17.82;100.00
6514;BME280;3290;47.716;9.070;2022-08-30T03:55:42;97082.75;;;17.80;100.00
6514;BME280;3290;47.716;9.070;2022-08-30T03:58:08;97092.00;;;17.77;100.00
6514;BME280;3290;47.716;9.070;2022-08-30T04:00:33;97086.53;;;17.89;100.00
6514;BME280;3290;47.716;9.070;2022-08-30T04:02:58;97082.28;;;17.93;100.00
6514;BME280;3290;47.716;9.070;2022-08-30T04:05:24;97085.94;;;17.82;100.00
6514;BME280;3290;47.716;9.070;2022-08-30T04:07:49;97094.16;;;17.80;100.00
6514;BME280;3290;47.716;9.070;2022-08-30T04:10:15;97098.13;;;17.83;100.00
6514;BME280;3290;47.716;9.070;2022-08-30T04:12:40;97092.25;;;17.76;100.00
6514;BME280;3290;47.716;9.070;2022-08-30T04:15:06;97097.09;;;17.84;100.00
6514;BME280;3290;47.716;9.070;2022-08-30T04:17:34;97096.94;;;18.05;100.00
6514;BME280;3290;47.716;9.070;2022-08-30T04:19:59;97101.28;;;18.16;100.00
6514;BME280;3290;47.716;9.070;2022-08-30T04:22:25;97104.66;;;18.06;100.00
6514;BME280;3290;47.716;9.070;2022-08-30T04:24:50;97105.03;;;17.84;100.00
6514;BME280;3290;47.716;9.070;2022-08-30T04:27:16;97102.09;;;17.80;100.00
6514;BME280;3290;47.716;9.070;2022-08-30T04:29:44;97097.41;;;17.92;100.00
6514;BME280;3290;47.716;9.070;2022-08-30T04:32:11;97098.44;;;17.91;100.00
6514;BME280;3290;47.716;9.070;2022-08-30T04:34:37;97102.78;;;17.66;100.00
6514;BME280;3290;47.716;9.070;2022-08-30T04:37:02;97101.22;;;17.70;100.00
6514;BME280;3290;47.716;9.070;2022-08-30T04:39:28;97106.38;;;17.50;100.00
6514;BME280;3290;47.716;9.070;2022-08-30T04:41:53;97111.44;;;17.57;100.00
6514;BME280;3290;47.716;9.070;2022-08-30T04:44:19;97117.16;;;17.75;100.00
6514;BME280;3290;47.716;9.070;2022-08-30T04:46:44;97115.94;;;17.87;100.00
6514;BME280;3290;47.716;9.070;2022-08-30T04:49:09;97113.06;;;17.94;100.00
6514;BME280;3290;47.716;9.070;2022-08-30T04:51:35;97107.78;;;17.99;100.00
6514;BME280;3290;47.716;9.070;2022-08-30T04:54:00;97104.88;;;18.00;100.00
6514;BME280;3290;47.716;9.070;2022-08-30T04:56:25;97107.28;;;18.02;100.00
6514;BME280;3290;47.716;9.070;2022-08-30T04:58:53;97118.25;;;17.79;100.00
6514;BME280;3290;47.716;9.070;2022-08-30T05:01:22;97113.75;;;17.79;100.00
6514;BME280;3290;47.716;9.070;2022-08-30T05:03:48;97118.47;;;17.72;100.00
6514;BME280;3290;47.716;9.070;2022-08-30T05:06:15;97126.81;;;17.91;100.00
6514;BME280;3290;47.716;9.070;2022-08-30T05:08:41;97139.63;;;18.03;100.00
6514;BME280;3290;47.716;9.070;2022-08-30T05:11:07;97131.69;;;18.03;100.00
6514;BME280;3290;47.716;9.070;2022-08-30T05:13:34;97138.66;;;18.14;100.00
6514;BME280;3290;47.716;9.070;2022-08-30T05:16:01;97143.81;;;18.26;100.00
6514;BME280;3290;47.716;9.070;2022-08-30T05:18:27;97143.47;;;18.58;100.00
6514;BME280;3290;47.716;9.070;2022-08-30T05:21:04;97146.06;;;18.48;100.00
6514;BME280;3290;47.716;9.070;2022-08-30T05:23:30;97148.47;;;18.55;100.00
6514;BME280;3290;47.716;9.070;2022-08-30T05:25:55;97147.91;;;18.53;100.00
6514;BME280;3290;47.716;9.070;2022-08-30T05:28:21;97144.47;;;18.52;100.00
6514;BME280;3290;47.716;9.070;2022-08-30T05:30:47;97147.03;;;18.33;100.00
6514;BME280;3290;47.716;9.070;2022-08-30T05:33:12;97152.63;;;18.36;100.00
6514;BME280;3290;47.716;9.070;2022-08-30T05:35:37;97152.47;;;18.57;100.00
6514;BME280;3290;47.716;9.070;2022-08-30T05:38:04;97159.72;;;18.77;100.00
6514;BME280;3290;47.716;9.070;2022-08-30T05:40:29;97165.09;;;18.86;100.00
6514;BME280;3290;47.716;9.070;2022-08-30T05:42:55;97159.72;;;18.77;100.00
6514;BME280;3290;47.716;9.070;2022-08-30T05:45:20;97165.34;;;18.85;100.00
6514;BME280;3290;47.716;9.070;2022-08-30T05:47:46;97169.97;;;19.09;100.00
6514;BME280;3290;47.716;9.070;2022-08-30T05:50:12;97162.84;;;19.34;100.00
6514;BME280;3290;47.716;9.070;2022-08-30T05:52:39;97167.38;;;19.29;100.00
6514;BME280;3290;47.716;9.070;2022-08-30T05:55:06;97164.75;;;19.39;100.00
6514;BME280;3290;47.716;9.070;2022-08-30T05:57:33;97166.25;;;19.15;100.00
6514;BME280;3290;47.716;9.070;2022-08-30T06:00:08;97163.59;;;19.15;100.00
6514;BME280;3290;47.716;9.070;2022-08-30T06:02:34;97157.50;;;19.25;100.00
6514;BME280;3290;47.716;9.070;2022-08-30T06:05:01;97152.75;;;19.31;100.00
6514;BME280;3290;47.716;9.070;2022-08-30T06:07:27;97155.16;;;19.53;100.00
6514;BME280;3290;47.716;9.070;2022-08-30T06:09:52;97153.84;;;19.50;100.00
6514;BME280;3290;47.716;9.070;2022-08-30T06:12:18;97150.41;;;19.50;100.00
6514;BME280;3290;47.716;9.070;2022-08-30T06:14:43;97152.25;;;19.54;100.00
6514;BME280;3290;47.716;9.070;2022-08-30T06:17:09;97152.56;;;19.87;100.00
6514;BME280;3290;47.716;9.070;2022-08-30T06:19:34;97150.97;;;20.16;100.00
6514;BME280;3290;47.716;9.070;2022-08-30T06:22:00;97157.22;;;20.74;100.00
6514;BME280;3290;47.716;9.070;2022-08-30T06:24:25;97150.25;;;20.83;100.00
6514;BME280;3290;47.716;9.070;2022-08-30T06:26:51;97152.53;;;21.14;100.00
6514;BME280;3290;47.716;9.070;2022-08-30T06:29:18;97152.09;;;21.40;100.00
6514;BME280;3290;47.716;9.070;2022-08-30T06:31:44;97152.41;;;21.77;99.31
6514;BME280;3290;47.716;9.070;2022-08-30T06:34:09;97154.78;;;21.78;99.08
6514;BME280;3290;47.716;9.070;2022-08-30T06:36:35;97154.38;;;21.67;99.09
6514;BME280;3290;47.716;9.070;2022-08-30T06:39:01;97157.41;;;21.45;97.38
6514;BME280;3290;47.716;9.070;2022-08-30T06:41:29;97145.91;;;21.88;95.02
6514;BME280;3290;47.716;9.070;2022-08-30T06:43:56;97154.91;;;21.97;94.87
6514;BME280;3290;47.716;9.070;2022-08-30T06:46:25;97151.28;;;21.83;96.99
6514;BME280;3290;47.716;9.070;2022-08-30T06:48:52;97151.28;;;21.83;97.03
6514;BME280;3290;47.716;9.070;2022-08-30T06:51:22;97141.63;;;22.48;94.28
6514;BME280;3290;47.716;9.070;2022-08-30T06:53:49;97143.09;;;22.59;91.42
6514;BME280;3290;47.716;9.070;2022-08-30T06:56:15;97140.16;;;22.60;90.49
6514;BME280;3290;47.716;9.070;2022-08-30T06:58:40;97143.69;;;22.79;90.75
6514;BME280;3290;47.716;9.070;2022-08-30T07:01:08;97144.28;;;22.48;91.50
6514;BME280;3290;47.716;9.070;2022-08-30T07:03:35;97141.59;;;22.99;90.09
6514;BME280;3290;47.716;9.070;2022-08-30T07:06:01;97140.72;;;22.81;91.62
6514;BME280;3290;47.716;9.070;2022-08-30T07:08:27;97140.22;;;23.02;90.71
6514;BME280;3290;47.716;9.070;2022-08-30T07:10:53;97137.41;;;22.89;91.55
6514;BME280;3290;47.716;9.070;2022-08-30T07:13:19;97132.66;;;23.27;89.02
6514;BME280;3290;47.716;9.070;2022-08-30T07:15:45;97134.19;;;23.33;87.69
6514;BME280;3290;47.716;9.070;2022-08-30T07:18:11;97128.81;;;22.96;89.22
6514;BME280;3290;47.716;9.070;2022-08-30T07:20:56;97128.75;;;23.01;90.03
6514;BME280;3290;47.716;9.070;2022-08-30T07:23:23;97128.72;;;22.55;94.80
6514;BME280;3290;47.716;9.070;2022-08-30T07:25:48;97125.94;;;23.30;91.71
6514;BME280;3290;47.716;9.070;2022-08-30T07:28:15;97129.50;;;23.80;88.37
6514;BME280;3290;47.716;9.070;2022-08-30T07:30:41;97122.69;;;23.51;88.63
6514;BME280;3290;47.716;9.070;2022-08-30T07:33:07;97123.09;;;23.39;90.24
6514;BME280;3290;47.716;9.070;2022-08-30T07:35:33;97125.00;;;23.39;90.44
6514;BME280;3290;47.716;9.070;2022-08-30T07:37:58;97134.00;;;23.06;89.08
6514;BME280;3290;47.716;9.070;2022-08-30T07:40:25;97131.19;;;22.98;91.34
6514;BME280;3290;47.716;9.070;2022-08-30T07:42:51;97128.31;;;23.68;88.72
6514;BME280;3290;47.716;9.070;2022-08-30T07:45:16;97130.13;;;23.54;88.48
6514;BME280;3290;47.716;9.070;2022-08-30T07:47:43;97124.72;;;23.40;90.16
6514;BME280;3290;47.716;9.070;2022-08-30T07:50:08;97124.06;;;23.30;89.73
6514;BME280;3290;47.716;9.070;2022-08-30T07:52:34;97130.19;;;23.85;87.15
6514;BME280;3290;47.716;9.070;2022-08-30T07:55:00;97123.66;;;23.91;86.81
6514;BME280;3290;47.716;9.070;2022-08-30T07:57:26;97125.19;;;24.42;86.49
6514;BME280;3290;47.716;9.070;2022-08-30T07:59:52;97124.00;;;24.35;84.30
6514;BME280;3290;47.716;9.070;2022-08-30T08:02:18;97127.50;;;24.75;82.89
6514;BME280;3290;47.716;9.070;2022-08-30T08:04:43;97129.28;;;24.93;82.73
6514;BME280;3290;47.716;9.070;2022-08-30T08:07:09;97130.97;;;24.89;83.63
6514;BME280;3290;47.716;9.070;2022-08-30T08:09:36;97119.03;;;23.97;84.58
6514;BME280;3290;47.716;9.070;2022-08-30T08:12:05;97121.03;;;24.05;84.48
6514;BME280;3290;47.716;9.070;2022-08-30T08:14:32;97117.19;;;23.42;88.26
6514;BME280;3290;47.716;9.070;2022-08-30T08:16:57;97117.19;;;24.55;82.46
6514;BME280;3290;47.716;9.070;2022-08-30T08:19:23;97115.47;;;24.86;81.23
6514;BME280;3290;47.716;9.070;2022-08-30T08:21:48;97113.59;;;25.48;79.90
6514;BME280;3290;47.716;9.070;2022-08-30T08:24:14;97120.72;;;25.88;76.22
6514;BME280;3290;47.716;9.070;2022-08-30T08:26:41;97117.28;;;24.51;83.51
6514;BME280;3290;47.716;9.070;2022-08-30T08:29:08;97119.75;;;24.87;81.96
6514;BME280;3290;47.716;9.070;2022-08-30T08:31:35;97121.97;;;25.34;81.01
6514;BME280;3290;47.716;9.070;2022-08-30T08:34:02;97121.44;;;25.10;80.39
6514;BME280;3290;47.716;9.070;2022-08-30T08:36:30;97121.34;;;25.85;77.66
6514;BME280;3290;47.716;9.070;2022-08-30T08:38:56;97114.25;;;26.11;77.04
6514;BME280;3290;47.716;9.070;2022-08-30T08:47:25;97117.75;;;26.19;74.22
6514;BME280;3290;47.716;9.070;2022-08-30T08:49:56;97119.19;;;26.77;71.22
6514;BME280;3290;47.716;9.070;2022-08-30T08:55:45;97111.97;;;27.50;69.56
6514;BME280;3290;47.716;9.070;2022-08-30T08:59:00;97112.75;;;27.67;68.33
6514;BME280;3290;47.716;9.070;2022-08-30T09:01:00;97105.41;;;27.09;70.84
6514;BME280;3290;47.716;9.070;2022-08-30T09:03:27;97105.22;;;27.05;69.63
6514;BME280;3290;47.716;9.070;2022-08-30T09:05:53;97109.03;;;27.13;69.39
6514;BME280;3290;47.716;9.070;2022-08-30T09:08:21;97102.56;;;27.31;69.99
6514;BME280;3290;47.716;9.070;2022-08-30T09:10:59;97091.63;;;27.94;66.23
6514;BME280;3290;47.716;9.070;2022-08-30T09:13:25;97109.75;;;27.52;67.80
6514;BME280;3290;47.716;9.070;2022-08-30T09:15:51;97104.22;;;26.93;69.11
6514;BME280;3290;47.716;9.070;2022-08-30T09:18:18;97105.75;;;27.58;67.06
6514;BME280;3290;47.716;9.070;2022-08-30T09:20:45;97103.84;;;27.41;69.32
6514;BME280;3290;47.716;9.070;2022-08-30T09:25:50;97092.91;;;27.21;68.65
6514;BME280;3290;47.716;9.070;2022-08-30T09:28:21;97086.69;;;27.04;69.99
6514;BME280;3290;47.716;9.070;2022-08-30T09:30:59;97093.59;;;27.69;67.07
6514;BME280;3290;47.716;9.070;2022-08-30T09:33:25;97093.66;;;27.05;69.98
6514;BME280;3290;47.716;9.070;2022-08-30T09:35:51;97079.44;;;27.38;68.28
6514;BME280;3290;47.716;9.070;2022-08-30T09:38:23;97073.53;;;28.20;64.12
6514;BME280;3290;47.716;9.070;2022-08-30T09:40:56;97076.63;;;27.60;67.36
6514;BME280;3290;47.716;9.070;2022-08-30T09:43:24;97078.69;;;27.63;67.30
6514;BME280;3290;47.716;9.070;2022-08-30T09:48:36;97075.78;;;27.17;69.78
6514;BME280;3290;47.716;9.070;2022-08-30T09:59:10;97068.44;;;28.27;62.25
6514;BME280;3290;47.716;9.070;2022-08-30T10:01:44;97071.94;;;28.19;63.63
6514;BME280;3290;47.716;9.070;2022-08-30T10:04:28;97065.03;;;27.84;65.44
6514;BME280;3290;47.716;9.070;2022-08-30T10:07:22;97062.63;;;28.08;65.62
6514;BME280;3290;47.716;9.070;2022-08-30T10:15:20;97072.38;;;28.38;65.10
6514;BME280;3290;47.716;9.070;2022-08-30T10:20:26;97073.47;;;28.82;60.45
6514;BME280;3290;47.716;9.070;2022-08-30T10:28:10;97075.00;;;28.55;64.01
6514;BME280;3290;47.716;9.070;2022-08-30T10:30:44;97070.09;;;28.11;64.45
6514;BME280;3290;47.716;9.070;2022-08-30T10:33:23;97066.44;;;27.90;63.60
6514;BME280;3290;47.716;9.070;2022-08-30T10:35:53;97065.00;;;27.93;64.28
6514;BME280;3290;47.716;9.070;2022-08-30T10:38:29;97057.03;;;28.30;63.19
6514;BME280;3290;47.716;9.070;2022-08-30T10:41:38;97056.31;;;28.50;65.57
6514;BME280;3290;47.716;9.070;2022-08-30T10:44:27;97058.72;;;29.08;60.73
6514;BME280;3290;47.716;9.070;2022-08-30T10:47:12;97052.97;;;29.39;60.96
6514;BME280;3290;47.716;9.070;2022-08-30T10:49:45;97053.44;;;29.73;56.40
6514;BME280;3290;47.716;9.070;2022-08-30T10:54:49;97042.97;;;30.35;57.17
6514;BME280;3290;47.716;9.070;2022-08-30T10:57:17;97039.38;;;30.55;53.84
6514;BME280;3290;47.716;9.070;2022-08-30T10:59:48;97040.38;;;30.74;55.69
6514;BME280;3290;47.716;9.070;2022-08-30T11:10:46;97044.94;;;30.15;56.00
6514;BME280;3290;47.716;9.070;2022-08-30T11:13:17;97039.25;;;30.52;54.82
6514;BME280;3290;47.716;9.070;2022-08-30T11:18:16;97028.78;;;30.74;57.07
6514;BME280;3290;47.716;9.070;2022-08-30T11:20:49;97033.31;;;30.70;55.52
6514;BME280;3290;47.716;9.070;2022-08-30T11:23:23;97034.44;;;30.93;53.13
6514;BME280;3290;47.716;9.070;2022-08-30T11:25:51;97032.50;;;30.58;55.79
6514;BME280;3290;47.716;9.070;2022-08-30T11:33:50;97032.72;;;31.12;53.21
6514;BME280;3290;47.716;9.070;2022-08-30T11:39:04;97024.06;;;30.95;53.07
6514;BME280;3290;47.716;9.070;2022-08-30T11:41:40;97012.78;;;30.45;53.84
6514;BME280;3290;47.716;9.070;2022-08-30T11:46:46;97016.06;;;31.25;54.44
6514;BME280;3290;47.716;9.070;2022-08-30T11:52:17;97012.53;;;30.74;54.26
6514;BME280;3290;47.716;9.070;2022-08-30T11:54:53;97014.97;;;31.26;52.97
6514;BME280;3290;47.716;9.070;2022-08-30T12:00:29;97000.56;;;30.99;54.15
6514;BME280;3290;47.716;9.070;2022-08-30T12:03:06;96992.88;;;31.12;55.52
6514;BME280;3290;47.716;9.070;2022-08-30T12:05:54;96985.72;;;30.93;54.73
6514;BME280;3290;47.716;9.070;2022-08-30T12:19:25;96972.06;;;31.83;51.11
6514;BME280;3290;47.716;9.070;2022-08-30T12:21:59;96972.13;;;31.71;51.09
6514;BME280;3290;47.716;9.070;2022-08-30T12:24:28;96963.72;;;31.76;52.06
6514;BME280;3290;47.716;9.070;2022-08-30T12:26:57;96963.22;;;31.86;52.67
6514;BME280;3290;47.716;9.070;2022-08-30T12:29:29;96959.38;;;31.71;52.02
6514;BME280;3290;47.716;9.070;2022-08-30T12:32:13;96962.00;;;30.90;53.29
6514;BME280;3290;47.716;9.070;2022-08-30T12:37:29;96955.25;;;30.25;55.81
6514;BME280;3290;47.716;9.070;2022-08-30T12:40:14;96957.06;;;30.09;57.09
6514;BME280;3290;47.716;9.070;2022-08-30T12:42:50;96954.69;;;30.07;59.09
6514;BME280;3290;47.716;9.070;2022-08-30T12:45:18;96945.44;;;30.20;57.51
6514;BME280;3290;47.716;9.070;2022-08-30T12:47:56;96944.09;;;30.50;55.88
6514;BME280;3290;47.716;9.070;2022-08-30T12:50:28;96940.41;;;30.54;58.44
6514;BME280;3290;47.716;9.070;2022-08-30T12:53:02;96939.03;;;30.84;55.68
6514;BME280;3290;47.716;9.070;2022-08-30T12:55:32;96943.19;;;30.69;55.67
6514;BME280;3290;47.716;9.070;2022-08-30T12:58:02;96947.81;;;30.22;57.40
6514;BME280;3290;47.716;9.070;2022-08-30T13:00:33;96937.44;;;30.83;55.56
6514;BME280;3290;47.716;9.070;2022-08-30T13:03:03;96940.94;;;30.24;56.17
6514;BME280;3290;47.716;9.070;2022-08-30T13:05:43;96930.56;;;29.58;58.95
6514;BME280;3290;47.716;9.070;2022-08-30T13:08:15;96927.47;;;29.80;59.44
6514;BME280;3290;47.716;9.070;2022-08-30T13:10:52;96924.75;;;29.68;57.58
6514;BME280;3290;47.716;9.070;2022-08-30T13:15:56;96918.19;;;30.25;58.37
6514;BME280;3290;47.716;9.070;2022-08-30T13:18:30;96923.25;;;30.26;57.39
6514;BME280;3290;47.716;9.070;2022-08-30T13:21:29;96918.75;;;30.30;59.31
6514;BME280;3290;47.716;9.070;2022-08-30T13:24:00;96918.72;;;29.83;58.33
6514;BME280;3290;47.716;9.070;2022-08-30T13:26:26;96909.28;;;30.13;56.79
6514;BME280;3290;47.716;9.070;2022-08-30T13:28:58;96912.69;;;30.33;55.78
6514;BME280;3290;47.716;9.070;2022-08-30T13:31:24;96908.44;;;29.77;60.58
6514;BME280;3290;47.716;9.070;2022-08-30T13:33:51;96912.09;;;29.60;60.73
6514;BME280;3290;47.716;9.070;2022-08-30T13:36:21;96908.94;;;30.14;58.38
6514;BME280;3290;47.716;9.070;2022-08-30T13:38:49;96901.38;;;29.84;56.49
6514;BME280;3290;47.716;9.070;2022-08-30T13:41:16;96907.41;;;29.69;56.44
6514;BME280;3290;47.716;9.070;2022-08-30T13:43:42;96894.88;;;30.32;54.12
6514;BME280;3290;47.716;9.070;2022-08-30T13:46:08;96883.59;;;31.48;53.51
6514;BME280;3290;47.716;9.070;2022-08-30T13:48:35;96888.34;;;30.96;53.45
6514;BME280;3290;47.716;9.070;2022-08-30T13:51:00;96882.66;;;31.28;52.06
6514;BME280;3290;47.716;9.070;2022-08-30T13:53:26;96889.78;;;30.94;51.73
6514;BME280;3290;47.716;9.070;2022-08-30T13:55:51;96887.47;;;30.68;53.77
6514;BME280;3290;47.716;9.070;2022-08-30T13:58:17;96880.13;;;30.30;55.60
6514;BME280;3290;47.716;9.070;2022-08-30T14:00:43;96886.06;;;30.00;55.45
6514;BME280;3290;47.716;9.070;2022-08-30T14:03:11;96884.94;;;29.89;56.65
6514;BME280;3290;47.716;9.070;2022-08-30T14:05:38;96884.72;;;29.82;57.13
6514;BME280;3290;47.716;9.070;2022-08-30T14:08:05;96877.75;;;30.05;55.13
6514;BME280;3290;47.716;9.070;2022-08-30T14:10:31;96877.97;;;30.35;52.39
6514;BME280;3290;47.716;9.070;2022-08-30T14:12:57;96868.66;;;30.60;52.43
6514;BME280;3290;47.716;9.070;2022-08-30T14:15:23;96880.00;;;30.38;54.17
6514;BME280;3290;47.716;9.070;2022-08-30T14:17:48;96870.94;;;30.58;54.11
6514;BME280;3290;47.716;9.070;2022-08-30T14:20:14;96865.19;;;30.48;53.30
6514;BME280;3290;47.716;9.070;2022-08-30T14:22:39;96872.53;;;30.59;52.98
6514;BME280;3290;47.716;9.070;2022-08-30T14:25:05;96862.88;;;30.73;52.47
6514;BME280;3290;47.716;9.070;2022-08-30T14:27:31;96859.97;;;31.06;49.67
6514;BME280;3290;47.716;9.070;2022-08-30T14:29:57;96860.28;;;30.89;50.28
6514;BME280;3290;47.716;9.070;2022-08-30T14:32:22;96852.50;;;30.87;50.92
6514;BME280;3290;47.716;9.070;2022-08-30T14:34:48;96853.84;;;30.81;48.96
6514;BME280;3290;47.716;9.070;2022-08-30T14:37:14;96863.47;;;30.67;50.44
6514;BME280;3290;47.716;9.070;2022-08-30T14:39:39;96859.56;;;30.92;50.42
6514;BME280;3290;47.716;9.070;2022-08-30T14:42:05;96853.28;;;30.88;50.93
6514;BME280;3290;47.716;9.070;2022-08-30T14:44:31;96853.69;;;31.02;48.69